Time;durP1;ratioP1;P1;durP2;ratioP2;P2;SDS_P1;SDS_P2;PMS_P1;PMS_P2;Temp;Humidity;BMP_temperature;BMP_pressure;BME280_temperature;BME280_humidity;BME280_pressure;Samples;Min_cycle;Max_cycle;Signal;HPM_P1;HPM_P2
2023/08/13 00:00:01;;;;;;;12.47;7.50;;;21.40;1.00;;;;;;5029074;28;20256;-78
2023/08/13 00:02:27;;;;;;;10.13;7.17;;;21.40;1.00;;;;;;5026884;28;20659;-77
2023/08/13 00:04:53;;;;;;;10.87;7.87;;;21.30;1.00;;;;;;5029524;28;20423;-76
2023/08/13 00:07:19;;;;;;;12.20;7.67;;;21.30;1.00;;;;;;5027439;28;20217;-76
2023/08/13 00:09:44;;;;;;;12.53;7.93;;;21.30;1.00;;;;;;5029290;28;20460;-76
2023/08/13 00:12:10;;;;;;;11.70;8.30;;;21.30;1.00;;;;;;5028203;28;20209;-76
2023/08/13 00:14:35;;;;;;;11.63;8.37;;;21.30;1.00;;;;;;5029237;28;20300;-77
2023/08/13 00:17:01;;;;;;;13.87;8.07;;;21.10;1.00;;;;;;5029173;28;20667;-77
2023/08/13 00:19:27;;;;;;;13.07;8.50;;;21.10;1.00;;;;;;5028792;28;20173;-76
2023/08/13 00:21:52;;;;;;;10.63;8.20;;;21.00;1.00;;;;;;5028901;28;20694;-76
2023/08/13 00:24:18;;;;;;;11.33;8.33;;;21.00;1.00;;;;;;5031132;28;20201;-76
2023/08/13 00:26:43;;;;;;;11.50;8.10;;;21.00;1.00;;;;;;5028968;28;20200;-76
2023/08/13 00:29:09;;;;;;;12.83;7.93;;;20.90;1.00;;;;;;5028336;28;20651;-77
2023/08/13 00:31:34;;;;;;;15.10;7.17;;;20.90;1.00;;;;;;5027172;28;20224;-77
2023/08/13 00:34:00;;;;;;;11.17;7.70;;;20.80;1.00;;;;;;5027490;28;20358;-76
2023/08/13 00:36:25;;;;;;;10.50;7.27;;;20.90;1.00;;;;;;5025970;28;20662;-76
2023/08/13 00:38:51;;;;;;;10.30;6.90;;;20.80;1.00;;;;;;5025585;28;20216;-76
2023/08/13 00:41:16;;;;;;;16.33;7.83;;;20.90;1.00;;;;;;5026373;28;20251;-75
2023/08/13 00:43:42;;;;;;;14.10;7.60;;;20.90;1.00;;;;;;5032487;28;20223;-76
2023/08/13 00:46:27;;;;;;;11.20;7.50;;;21.00;1.00;;;;;;5032289;28;20185;-76
2023/08/13 00:48:56;;;;;;;14.50;7.17;;;21.00;1.00;;;;;;5031788;28;20663;-78
2023/08/13 00:51:22;;;;;;;9.77;7.07;;;21.00;1.00;;;;;;5030402;28;20551;-76
2023/08/13 00:53:48;;;;;;;14.80;7.17;;;21.10;1.00;;;;;;5032466;28;20440;-76
2023/08/13 00:56:14;;;;;;;11.00;7.60;;;21.10;1.00;;;;;;5031887;28;20477;-78
2023/08/13 00:58:44;;;;;;;11.00;6.63;;;21.00;1.00;;;;;;5032323;28;20184;-76
2023/08/13 01:01:11;;;;;;;9.03;6.47;;;21.10;1.00;;;;;;5034075;28;20485;-76
2023/08/13 01:03:37;;;;;;;11.53;6.97;;;21.10;1.00;;;;;;5032186;28;20548;-77
2023/08/13 01:06:35;;;;;;;11.00;7.30;;;21.10;1.00;;;;;;5031815;28;20427;-76
2023/08/13 01:09:25;;;;;;;10.83;6.50;;;21.10;1.00;;;;;;5027951;28;20482;-76
2023/08/13 01:12:13;;;;;;;10.03;6.77;;;21.10;1.00;;;;;;5026248;28;20459;-76
2023/08/13 01:14:48;;;;;;;8.40;7.03;;;21.10;1.00;;;;;;5025013;28;20444;-77
2023/08/13 01:17:17;;;;;;;11.73;7.20;;;21.10;1.00;;;;;;5028322;28;20485;-78
2023/08/13 01:19:43;;;;;;;11.00;7.43;;;21.10;1.00;;;;;;5031443;28;20443;-77
2023/08/13 01:22:09;;;;;;;9.90;6.60;;;21.10;1.00;;;;;;5031847;28;20443;-77
2023/08/13 01:24:34;;;;;;;14.23;7.00;;;21.10;1.00;;;;;;5023956;28;20212;-77
2023/08/13 01:27:30;;;;;;;7.90;6.07;;;21.10;1.00;;;;;;5031748;28;20443;-77
2023/08/13 01:30:07;;;;;;;10.53;6.70;;;21.10;1.00;;;;;;5031916;28;20209;-78
2023/08/13 01:32:39;;;;;;;10.20;6.60;;;21.20;1.00;;;;;;5031107;28;20469;-79
2023/08/13 01:35:07;;;;;;;9.03;6.50;;;21.20;1.00;;;;;;5032343;28;20936;-77
2023/08/13 01:37:33;;;;;;;8.27;6.57;;;21.20;1.00;;;;;;5034538;28;20477;-76
2023/08/13 01:39:58;;;;;;;10.40;6.60;;;21.10;1.00;;;;;;5023332;28;20511;-76
2023/08/13 01:42:24;;;;;;;11.20;6.47;;;21.10;1.00;;;;;;5028387;28;20456;-75
2023/08/13 01:44:50;;;;;;;12.00;6.37;;;21.10;1.00;;;;;;5028564;28;20216;-75
2023/08/13 01:47:15;;;;;;;10.00;6.20;;;21.10;1.00;;;;;;5028013;28;20464;-78
2023/08/13 01:49:41;;;;;;;8.70;6.33;;;21.00;1.00;;;;;;5030375;28;20194;-77
2023/08/13 01:52:06;;;;;;;7.90;6.47;;;21.10;1.00;;;;;;5032218;28;20778;-76
2023/08/13 01:54:32;;;;;;;7.87;6.43;;;21.10;1.00;;;;;;5033137;28;20262;-77
2023/08/13 01:56:57;;;;;;;10.30;6.70;;;21.10;1.00;;;;;;5031417;28;20208;-76
2023/08/13 01:59:23;;;;;;;8.87;6.30;;;21.00;1.00;;;;;;5030753;28;20185;-76
2023/08/13 02:01:48;;;;;;;8.30;6.20;;;21.00;1.00;;;;;;5031229;28;20536;-77
2023/08/13 02:04:14;;;;;;;8.80;6.87;;;21.00;1.00;;;;;;5029955;28;20208;-74
2023/08/13 02:06:39;;;;;;;9.57;6.73;;;21.20;1.00;;;;;;5032403;28;20188;-77
2023/08/13 02:09:05;;;;;;;10.00;6.63;;;21.00;1.00;;;;;;5030886;28;20192;-76
2023/08/13 02:11:31;;;;;;;10.07;7.13;;;21.00;1.00;;;;;;5030411;28;20205;-77
2023/08/13 02:13:56;;;;;;;12.83;6.80;;;21.00;1.00;;;;;;5031001;28;20243;-75
2023/08/13 02:16:21;;;;;;;12.20;7.10;;;21.00;1.00;;;;;;5030288;28;20181;-75
2023/08/13 02:18:47;;;;;;;11.57;7.67;;;21.00;1.00;;;;;;5030793;28;20686;-77
2023/08/13 02:21:13;;;;;;;11.93;7.33;;;21.00;1.00;;;;;;5030764;28;20224;-75
2023/08/13 02:23:38;;;;;;;16.17;7.70;;;20.90;1.00;;;;;;5030215;28;20691;-75
2023/08/13 02:26:04;;;;;;;11.43;7.23;;;20.90;1.00;;;;;;5030578;28;20189;-76
2023/08/13 02:28:29;;;;;;;11.23;7.50;;;20.90;1.00;;;;;;5028460;28;20178;-76
2023/08/13 02:30:55;;;;;;;12.07;7.30;;;20.90;1.00;;;;;;5030566;28;20687;-75
2023/08/13 02:33:20;;;;;;;10.97;7.80;;;20.90;1.00;;;;;;5029793;28;20193;-77
2023/08/13 02:35:46;;;;;;;11.37;7.30;;;20.90;1.00;;;;;;5030448;28;20184;-75
2023/08/13 02:38:11;;;;;;;13.00;7.80;;;20.90;1.00;;;;;;5030311;28;20181;-79
2023/08/13 02:40:37;;;;;;;8.17;6.70;;;21.00;1.00;;;;;;5029873;28;20200;-76
2023/08/13 02:43:03;;;;;;;12.50;7.90;;;21.00;1.00;;;;;;5030857;28;20242;-77
2023/08/13 02:45:28;;;;;;;9.73;7.63;;;21.00;1.00;;;;;;5029625;28;20177;-77
2023/08/13 02:47:54;;;;;;;10.40;7.33;;;21.00;1.00;;;;;;5030267;28;20426;-76
2023/08/13 02:50:19;;;;;;;12.90;8.37;;;21.00;1.00;;;;;;5028128;28;20177;-75
2023/08/13 02:52:45;;;;;;;12.50;8.40;;;21.00;1.00;;;;;;5028008;28;20209;-75
2023/08/13 02:55:10;;;;;;;11.17;8.10;;;21.10;1.00;;;;;;5028596;28;20181;-75
2023/08/13 02:57:36;;;;;;;12.07;7.80;;;22.10;1.00;;;;;;5028060;28;20181;-75
2023/08/13 03:00:02;;;;;;;15.93;8.00;;;21.20;1.00;;;;;;5028225;28;20234;-75
2023/08/13 03:02:27;;;;;;;18.63;9.70;;;21.10;1.00;;;;;;5029397;28;20181;-76
2023/08/13 03:04:53;;;;;;;13.80;9.10;;;21.20;1.00;;;;;;5032180;28;20603;-76
2023/08/13 03:07:18;;;;;;;11.50;8.63;;;21.20;1.00;;;;;;5029868;28;20682;-75
2023/08/13 03:09:44;;;;;;;12.73;9.10;;;21.20;1.00;;;;;;5021787;28;20192;-76
2023/08/13 03:12:09;;;;;;;13.57;8.73;;;21.20;1.00;;;;;;5030448;28;20208;-76
2023/08/13 03:14:35;;;;;;;12.80;9.53;;;21.20;1.00;;;;;;5028951;28;20213;-74
2023/08/13 03:17:00;;;;;;;13.53;9.73;;;21.20;1.00;;;;;;5031307;28;20185;-76
2023/08/13 03:19:26;;;;;;;16.57;10.60;;;21.20;1.00;;;;;;5029407;28;20551;-77
2023/08/13 03:21:51;;;;;;;14.07;10.73;;;21.50;1.00;;;;;;5027989;28;20220;-75
2023/08/13 03:24:17;;;;;;;18.97;10.23;;;21.20;1.00;;;;;;5027892;28;20705;-75
2023/08/13 03:26:42;;;;;;;13.80;10.47;;;21.10;1.00;;;;;;5028924;28;20185;-76
2023/08/13 03:29:08;;;;;;;12.80;10.33;;;21.10;1.00;;;;;;5029734;28;20189;-76
2023/08/13 03:31:33;;;;;;;15.63;11.00;;;21.10;1.00;;;;;;5027801;28;20734;-75
2023/08/13 03:33:59;;;;;;;16.40;11.07;;;21.10;1.00;;;;;;5029620;28;20221;-75
2023/08/13 03:36:24;;;;;;;15.90;10.77;;;21.10;1.00;;;;;;5029009;28;20188;-75
2023/08/13 03:38:50;;;;;;;15.90;10.30;;;21.00;1.00;;;;;;5029150;28;20630;-76
2023/08/13 03:41:15;;;;;;;18.80;10.40;;;21.00;1.00;;;;;;5028947;28;20224;-76
2023/08/13 03:43:41;;;;;;;16.63;10.60;;;21.00;1.00;;;;;;5028911;28;21019;-76
2023/08/13 03:46:06;;;;;;;18.87;11.37;;;21.00;1.00;;;;;;5029382;28;20181;-76
2023/08/13 03:48:33;;;;;;;18.27;11.00;;;21.10;1.00;;;;;;5028886;28;20195;-76
2023/08/13 03:50:59;;;;;;;13.90;9.90;;;21.00;1.00;;;;;;5029150;28;20205;-75
2023/08/13 03:53:24;;;;;;;16.93;10.30;;;21.00;1.00;;;;;;5028876;28;20455;-75
2023/08/13 03:55:50;;;;;;;18.93;11.33;;;21.00;1.00;;;;;;5027756;28;20899;-76
2023/08/13 03:58:16;;;;;;;15.73;9.53;;;21.00;1.00;;;;;;5028360;28;20182;-76
2023/08/13 04:00:42;;;;;;;17.40;10.67;;;21.00;1.00;;;;;;5025874;28;20443;-77
2023/08/13 04:03:09;;;;;;;14.10;9.90;;;21.00;1.00;;;;;;5029097;28;20249;-75
2023/08/13 04:05:35;;;;;;;15.00;10.80;;;21.00;1.00;;;;;;5028915;28;20181;-76
2023/08/13 04:08:00;;;;;;;13.77;11.53;;;20.90;1.00;;;;;;5029222;28;20760;-76
2023/08/13 04:10:26;;;;;;;13.03;10.60;;;21.00;1.00;;;;;;5028071;28;20185;-73
2023/08/13 04:12:52;;;;;;;14.93;10.20;;;20.90;1.00;;;;;;5028762;28;20213;-75
2023/08/13 04:15:18;;;;;;;14.17;10.40;;;20.90;1.00;;;;;;5028085;28;20181;-75
2023/08/13 04:17:43;;;;;;;11.97;9.60;;;20.90;1.00;;;;;;5032801;28;20415;-75
2023/08/13 04:20:10;;;;;;;15.20;10.57;;;20.90;1.00;;;;;;5032686;28;20208;-77
2023/08/13 04:22:36;;;;;;;15.23;9.73;;;20.80;1.00;;;;;;5032354;28;20185;-76
2023/08/13 04:25:01;;;;;;;14.17;10.10;;;20.80;1.00;;;;;;5032997;28;20486;-76
2023/08/13 04:27:27;;;;;;;20.10;9.90;;;20.80;1.00;;;;;;5031813;28;20192;-76
2023/08/13 04:29:52;;;;;;;15.60;10.47;;;20.80;1.00;;;;;;5032672;28;20182;-75
2023/08/13 04:32:18;;;;;;;12.63;9.33;;;20.80;1.00;;;;;;5032602;28;20281;-76
2023/08/13 04:34:43;;;;;;;15.90;9.83;;;20.90;1.00;;;;;;5032468;28;20260;-76
2023/08/13 04:37:09;;;;;;;17.93;10.27;;;20.90;1.00;;;;;;5032579;28;20180;-75
2023/08/13 04:39:34;;;;;;;14.93;9.80;;;20.90;1.00;;;;;;5031749;28;20614;-76
2023/08/13 04:42:00;;;;;;;16.40;9.60;;;20.90;1.00;;;;;;5032485;28;20279;-76
2023/08/13 04:44:26;;;;;;;12.30;9.10;;;21.00;1.00;;;;;;5032573;28;20201;-76
2023/08/13 04:46:52;;;;;;;13.73;9.33;;;21.00;1.00;;;;;;5032057;28;20184;-76
2023/08/13 04:49:17;;;;;;;15.97;9.17;;;21.00;1.00;;;;;;5032398;28;20514;-75
2023/08/13 04:51:43;;;;;;;11.20;8.60;;;21.10;1.00;;;;;;5032000;28;20201;-75
2023/08/13 04:54:08;;;;;;;12.43;9.40;;;21.10;1.00;;;;;;5034469;28;20202;-77
2023/08/13 04:56:34;;;;;;;13.97;9.20;;;21.10;1.00;;;;;;5034135;28;20189;-75
2023/08/13 04:58:59;;;;;;;15.53;9.67;;;21.10;1.00;;;;;;5032018;28;20666;-75
2023/08/13 05:01:25;;;;;;;15.70;8.83;;;21.20;1.00;;;;;;5032131;28;20189;-75
2023/08/13 05:03:50;;;;;;;12.13;9.10;;;22.60;1.00;;;;;;5031956;28;20675;-75
2023/08/13 05:06:16;;;;;;;11.30;8.83;;;21.30;1.00;;;;;;5030453;28;20181;-76
2023/08/13 05:08:42;;;;;;;13.20;8.80;;;21.20;1.00;;;;;;5031500;28;20188;-76
2023/08/13 05:11:07;;;;;;;13.13;8.20;;;21.20;1.00;;;;;;5031919;28;21080;-75
2023/08/13 05:13:33;;;;;;;9.17;8.20;;;21.30;1.00;;;;;;5031536;28;20213;-76
2023/08/13 05:15:59;;;;;;;10.97;8.00;;;21.30;1.00;;;;;;5032103;28;20264;-75
2023/08/13 05:18:24;;;;;;;12.30;8.27;;;21.40;1.00;;;;;;5031316;28;20186;-75
2023/08/13 05:20:50;;;;;;;9.30;7.80;;;21.40;1.00;;;;;;5030288;28;20181;-75
2023/08/13 05:23:16;;;;;;;9.33;8.10;;;21.50;1.00;;;;;;5036840;28;20686;-75
2023/08/13 05:25:42;;;;;;;11.20;7.60;;;21.70;1.00;;;;;;5033114;28;20466;-74
2023/08/13 05:28:08;;;;;;;11.60;7.97;;;21.70;1.00;;;;;;5030713;28;20223;-76
2023/08/13 05:30:37;;;;;;;12.53;8.23;;;21.80;1.00;;;;;;5030212;28;20622;-73
2023/08/13 05:33:03;;;;;;;12.20;7.50;;;21.80;1.00;;;;;;5028996;28;20459;-75
2023/08/13 05:35:29;;;;;;;13.23;7.30;;;21.90;1.00;;;;;;5031545;28;20420;-75
2023/08/13 05:37:55;;;;;;;9.50;7.37;;;21.90;1.00;;;;;;5031074;28;20686;-76
2023/08/13 05:40:20;;;;;;;9.63;6.70;;;21.90;1.00;;;;;;5028434;28;20216;-75
2023/08/13 05:42:47;;;;;;;12.40;7.20;;;21.90;1.00;;;;;;5031083;28;20205;-75
2023/08/13 05:45:13;;;;;;;10.90;7.60;;;21.90;1.00;;;;;;5031564;28;20181;-76
2023/08/13 05:47:39;;;;;;;12.27;7.80;;;22.00;1.00;;;;;;5030656;28;20949;-76
2023/08/13 05:50:04;;;;;;;11.30;7.27;;;22.10;1.00;;;;;;5031232;28;20205;-76
2023/08/13 05:52:30;;;;;;;10.30;7.40;;;22.20;1.00;;;;;;5029253;28;20205;-75
2023/08/13 05:54:56;;;;;;;9.20;7.17;;;22.20;1.00;;;;;;5027416;28;20201;-76
2023/08/13 05:57:22;;;;;;;11.10;7.00;;;22.30;1.00;;;;;;5028078;28;20185;-76
2023/08/13 05:59:47;;;;;;;10.90;7.60;;;22.40;1.00;;;;;;5028729;28;20209;-77
2023/08/13 06:02:13;;;;;;;9.33;7.30;;;22.50;1.00;;;;;;5026882;28;20595;-76
2023/08/13 06:04:38;;;;;;;9.70;7.00;;;22.60;1.00;;;;;;5028551;28;20250;-76
2023/08/13 06:07:04;;;;;;;11.53;7.37;;;22.70;1.00;;;;;;5028971;28;20520;-74
2023/08/13 06:09:30;;;;;;;10.20;7.90;;;22.80;1.00;;;;;;5029814;28;20188;-75
2023/08/13 06:11:56;;;;;;;12.70;7.00;;;22.90;1.00;;;;;;5028032;28;20213;-76
2023/08/13 06:14:22;;;;;;;11.03;7.60;;;22.90;1.00;;;;;;5029154;28;21008;-76
2023/08/13 06:16:47;;;;;;;9.70;6.67;;;23.10;1.00;;;;;;5028775;28;20177;-76
2023/08/13 06:19:13;;;;;;;13.80;8.07;;;23.30;1.00;;;;;;5027675;28;20656;-76
2023/08/13 06:21:39;;;;;;;11.67;6.57;;;23.20;1.00;;;;;;5027706;28;20181;-77
2023/08/13 06:24:05;;;;;;;9.50;7.00;;;23.20;1.00;;;;;;5029311;28;20209;-76
2023/08/13 06:26:34;;;;;;;11.00;6.40;;;23.10;1.00;;;;;;5028200;28;20200;-76
2023/08/13 06:29:00;;;;;;;9.70;7.00;;;23.20;1.00;;;;;;5028965;28;20440;-76
2023/08/13 06:31:25;;;;;;;12.40;7.30;;;23.30;1.00;;;;;;5026239;28;20470;-76
2023/08/13 06:33:51;;;;;;;9.10;7.40;;;23.50;1.00;;;;;;5025660;28;20202;-76
2023/08/13 06:36:17;;;;;;;8.80;6.50;;;23.40;1.00;;;;;;5028500;28;20595;-75
2023/08/13 06:38:43;;;;;;;7.77;6.20;;;23.60;1.00;;;;;;5026552;28;20185;-76
2023/08/13 06:41:08;;;;;;;9.80;6.60;;;23.70;1.00;;;;;;5028166;28;21034;-75
2023/08/13 06:43:34;;;;;;;9.67;6.60;;;24.00;1.00;;;;;;5029444;28;20691;-76
2023/08/13 06:46:01;;;;;;;8.87;6.40;;;24.10;1.00;;;;;;5027595;28;20185;-76
2023/08/13 06:48:27;;;;;;;7.70;5.40;;;24.10;1.00;;;;;;5028183;28;20678;-77
2023/08/13 06:50:54;;;;;;;8.00;5.70;;;24.20;1.00;;;;;;5027566;28;20518;-75
2023/08/13 06:53:20;;;;;;;12.50;6.20;;;24.50;1.00;;;;;;5027833;28;20546;-76
2023/08/13 06:55:46;;;;;;;10.43;6.80;;;24.50;1.00;;;;;;5028527;28;20908;-77
2023/08/13 06:58:11;;;;;;;9.53;5.80;;;24.40;1.00;;;;;;5027056;28;20782;-76
2023/08/13 07:00:37;;;;;;;9.47;5.30;;;24.70;1.00;;;;;;5026324;28;20216;-77
2023/08/13 07:03:03;;;;;;;9.87;6.00;;;24.20;1.00;;;;;;5027659;28;20228;-76
2023/08/13 07:05:29;;;;;;;8.20;6.57;;;24.20;1.00;;;;;;5028064;28;20950;-76
2023/08/13 07:07:55;;;;;;;8.07;6.40;;;24.10;1.00;;;;;;5028393;28;20209;-76
2023/08/13 07:10:20;;;;;;;12.50;6.43;;;24.50;1.00;;;;;;5027545;28;20185;-79
2023/08/13 07:12:46;;;;;;;9.23;6.00;;;24.70;1.00;;;;;;5027590;28;20205;-76
2023/08/13 07:15:11;;;;;;;8.07;5.80;;;25.00;1.00;;;;;;5028352;28;20181;-79
2023/08/13 07:17:37;;;;;;;8.87;6.20;;;25.20;1.00;;;;;;5027728;28;20268;-76
2023/08/13 07:20:06;;;;;;;7.13;5.10;;;25.30;1.00;;;;;;5028237;28;20181;-75
2023/08/13 07:22:32;;;;;;;8.00;5.40;;;25.80;1.00;;;;;;5026510;28;20196;-77
2023/08/13 07:24:57;;;;;;;7.83;5.60;;;25.80;1.00;;;;;;5026974;28;20435;-76
2023/08/13 07:27:23;;;;;;;13.97;5.40;;;26.00;1.00;;;;;;5023588;28;20185;-76
2023/08/13 07:29:48;;;;;;;6.40;4.80;;;26.00;1.00;;;;;;5024941;28;20444;-75
2023/08/13 07:32:14;;;;;;;8.17;5.17;;;26.40;1.00;;;;;;5025194;28;20876;-75
2023/08/13 07:34:39;;;;;;;6.57;4.97;;;26.70;1.00;;;;;;5028512;28;20241;-75
2023/08/13 07:37:05;;;;;;;7.87;5.10;;;26.90;1.00;;;;;;5027318;28;20173;-75
2023/08/13 07:39:31;;;;;;;6.73;5.20;;;26.80;1.00;;;;;;5025938;28;20243;-75
2023/08/13 07:41:56;;;;;;;7.00;4.90;;;26.90;1.00;;;;;;5027708;28;20599;-78
2023/08/13 07:44:22;;;;;;;7.20;4.40;;;26.80;1.00;;;;;;5026843;28;20208;-77
2023/08/13 07:46:50;;;;;;;7.03;4.97;;;26.60;1.00;;;;;;5026462;28;20209;-75
2023/08/13 07:49:16;;;;;;;8.00;4.53;;;26.70;1.00;;;;;;5024393;28;20590;-74
2023/08/13 07:51:42;;;;;;;7.50;4.70;;;26.60;1.00;;;;;;5028824;28;20472;-75
2023/08/13 07:54:07;;;;;;;5.77;3.87;;;27.00;1.00;;;;;;5029373;28;20459;-75
2023/08/13 07:56:33;;;;;;;7.73;4.60;;;27.10;1.00;;;;;;5029417;28;20559;-74
2023/08/13 07:58:59;;;;;;;5.33;4.40;;;27.30;1.00;;;;;;5028716;28;20193;-75
2023/08/13 08:01:28;;;;;;;8.33;4.73;;;27.60;1.00;;;;;;5029576;28;20189;-75
2023/08/13 08:03:54;;;;;;;7.03;4.23;;;27.80;1.00;;;;;;5028366;28;20310;-75
2023/08/13 08:06:21;;;;;;;7.00;4.40;;;27.90;1.00;;;;;;5029488;28;20663;-75
2023/08/13 08:08:46;;;;;;;6.13;4.60;;;28.00;1.00;;;;;;5029068;28;20567;-73
2023/08/13 08:11:12;;;;;;;4.73;4.03;;;28.10;1.00;;;;;;5029354;28;20471;-75
2023/08/13 08:13:37;;;;;;;6.50;4.00;;;28.60;1.00;;;;;;5081111;22;20229;-74
2023/08/13 08:16:03;;;;;;;7.00;4.17;;;29.60;1.00;;;;;;5040383;28;20205;-74
2023/08/13 08:18:29;;;;;;;7.80;3.50;;;30.40;1.00;;;;;;5021641;28;20173;-74
2023/08/13 08:20:54;;;;;;;6.18;4.00;;;30.20;1.00;;;;;;5027180;28;20192;-74
2023/08/13 08:23:20;;;;;;;6.43;4.03;;;29.50;1.00;;;;;;5009679;28;20684;-74
2023/08/13 08:25:45;;;;;;;6.40;4.00;;;29.00;1.00;;;;;;5009494;28;20248;-74
2023/08/13 08:28:11;;;;;;;4.90;3.50;;;28.80;1.00;;;;;;5008154;28;20178;-73
2023/08/13 08:30:37;;;;;;;4.83;3.40;;;29.00;1.00;;;;;;5009886;28;20240;-74
2023/08/13 08:33:02;;;;;;;5.60;3.83;;;29.90;1.00;;;;;;5008123;28;20210;-73
2023/08/13 08:35:28;;;;;;;5.45;3.42;;;30.00;1.00;;;;;;5009713;28;20174;-73
2023/08/13 08:37:53;;;;;;;4.63;3.20;;;30.90;1.00;;;;;;5007909;28;20186;-73
2023/08/13 08:40:19;;;;;;;5.70;3.28;;;30.60;1.00;;;;;;5004535;28;20178;-74
2023/08/13 08:42:45;;;;;;;5.20;3.85;;;;;;;;;;5008582;28;20189;-73
2023/08/13 08:45:13;;;;;;;7.00;3.80;;;29.40;1.00;;;;;;5008073;28;20182;-74
2023/08/13 08:47:42;;;;;;;7.00;3.15;;;29.90;1.00;;;;;;5012329;28;20190;-74
2023/08/13 08:50:11;;;;;;;6.65;3.13;;;30.30;1.00;;;;;;5009490;28;20185;-74
2023/08/13 08:52:38;;;;;;;7.70;3.70;;;30.80;1.00;;;;;;5009538;28;20209;-74
2023/08/13 08:55:04;;;;;;;8.88;3.33;;;31.80;1.00;;;;;;5009404;28;20890;-74
2023/08/13 08:57:30;;;;;;;6.57;3.20;;;31.70;1.00;;;;;;5009667;28;20272;-74
2023/08/13 08:59:55;;;;;;;6.32;3.00;;;31.80;1.00;;;;;;5009521;28;20181;-74
2023/08/13 09:02:21;;;;;;;7.00;3.22;;;31.40;1.00;;;;;;5009942;28;20271;-74
2023/08/13 09:04:46;;;;;;;8.52;3.20;;;31.40;1.00;;;;;;5012135;28;20673;-74
2023/08/13 09:07:12;;;;;;;9.43;3.60;;;31.40;1.00;;;;;;5012348;28;20182;-75
2023/08/13 09:09:37;;;;;;;4.28;2.97;;;31.80;1.00;;;;;;5011897;28;20192;-74
2023/08/13 09:12:03;;;;;;;5.38;3.35;;;32.50;1.00;;;;;;5012498;28;20565;-74
2023/08/13 09:14:29;;;;;;;4.50;3.00;;;33.10;1.00;;;;;;5012964;28;20217;-74
2023/08/13 09:16:56;;;;;;;4.28;2.70;;;33.90;1.00;;;;;;5012631;28;20564;-74
2023/08/13 09:19:23;;;;;;;4.28;2.83;;;34.20;1.00;;;;;;5011566;28;20185;-74
2023/08/13 09:21:55;;;;;;;5.03;2.83;;;33.90;1.00;;;;;;5012159;28;20674;-74
2023/08/13 09:24:33;;;;;;;6.03;3.40;;;33.60;1.00;;;;;;5004163;28;20214;-74
2023/08/13 09:26:59;;;;;;;6.70;3.10;;;33.80;1.00;;;;;;5025157;28;20193;-75
2023/08/13 09:29:28;;;;;;;4.80;2.72;;;34.10;1.00;;;;;;5011672;28;20186;-74
2023/08/13 09:31:55;;;;;;;5.63;3.00;;;34.00;1.00;;;;;;5012398;28;20256;-74
2023/08/13 09:34:21;;;;;;;8.77;3.15;;;33.40;1.00;;;;;;5012755;28;20221;-74
2023/08/13 09:36:46;;;;;;;8.95;2.97;;;32.20;1.00;;;;;;5008017;28;20676;-74
2023/08/13 09:39:12;;;;;;;6.05;2.80;;;31.60;1.00;;;;;;5012214;28;20193;-74
2023/08/13 09:41:37;;;;;;;6.00;2.95;;;31.60;1.00;;;;;;5012451;28;20240;-74
2023/08/13 09:44:09;;;;;;;4.93;2.75;;;31.80;1.00;;;;;;5012291;28;20205;-74
2023/08/13 09:46:35;;;;;;;7.38;2.25;;;32.00;1.00;;;;;;5011700;28;20203;-74
2023/08/13 09:49:03;;;;;;;6.50;2.38;;;32.10;1.00;;;;;;5011815;28;20189;-73
2023/08/13 09:51:33;;;;;;;4.00;2.30;;;32.40;1.00;;;;;;5012387;28;20205;-74
2023/08/13 09:54:09;;;;;;;6.90;2.40;;;32.80;1.00;;;;;;5011982;28;20202;-74
2023/08/13 09:56:37;;;;;;;3.97;2.22;;;32.40;1.00;;;;;;5010606;28;20212;-74
2023/08/13 09:59:03;;;;;;;5.68;2.10;;;33.00;1.00;;;;;;5010482;28;20190;-74
2023/08/13 10:01:29;;;;;;;4.15;2.20;;;33.20;1.00;;;;;;5011996;28;20190;-74
2023/08/13 10:03:55;;;;;;;3.83;2.20;;;33.90;1.00;;;;;;5010859;28;20213;-74
2023/08/13 10:06:21;;;;;;;7.00;2.30;;;34.30;1.00;;;;;;5011678;28;20192;-74
2023/08/13 10:08:48;;;;;;;3.85;2.10;;;34.60;1.00;;;;;;5011950;28;20192;-74
2023/08/13 10:11:14;;;;;;;6.93;2.40;;;35.40;1.00;;;;;;5009885;28;20635;-74
2023/08/13 10:13:40;;;;;;;5.20;2.15;;;35.40;1.00;;;;;;5010060;28;20297;-74
2023/08/13 10:16:07;;;;;;;3.30;1.98;;;35.30;1.00;;;;;;5011464;28;20261;-74
2023/08/13 10:18:34;;;;;;;3.90;1.95;;;35.70;1.00;;;;;;5011782;28;20182;-74
2023/08/13 10:20:59;;;;;;;4.07;2.20;;;35.70;1.00;;;;;;5011487;28;20189;-75
2023/08/13 10:23:26;;;;;;;5.30;2.20;;;35.90;1.00;;;;;;5011672;28;20198;-74
2023/08/13 10:25:56;;;;;;;5.13;2.05;;;35.80;1.00;;;;;;5011486;28;20190;-74
2023/08/13 10:28:22;;;;;;;3.70;2.10;;;35.50;1.00;;;;;;5009615;28;20181;-75
2023/08/13 10:30:48;;;;;;;5.22;2.25;;;35.10;1.00;;;;;;5010303;28;20652;-75
2023/08/13 10:33:14;;;;;;;4.50;2.30;;;35.10;1.00;;;;;;5009920;28;20204;-74
2023/08/13 10:35:42;;;;;;;5.90;2.38;;;34.80;1.00;;;;;;5011702;28;20269;-74
2023/08/13 10:38:08;;;;;;;4.75;2.50;;;34.80;1.00;;;;;;5009792;28;20185;-74
2023/08/13 10:40:34;;;;;;;4.40;2.00;;;35.10;1.00;;;;;;5009801;28;20232;-74
2023/08/13 10:43:01;;;;;;;4.93;2.10;;;35.40;1.00;;;;;;5010795;28;20182;-75
2023/08/13 10:45:35;;;;;;;5.82;2.17;;;35.40;1.00;;;;;;5011329;28;20194;-74
2023/08/13 10:48:05;;;;;;;4.32;2.50;;;35.00;1.00;;;;;;5009554;28;20194;-73
2023/08/13 10:50:40;;;;;;;3.33;1.90;;;34.90;1.00;;;;;;5011052;28;20178;-74
2023/08/13 10:53:05;;;;;;;3.70;2.20;;;34.90;1.00;;;;;;5009467;28;20634;-74
2023/08/13 10:55:34;;;;;;;6.47;2.40;;;34.40;1.00;;;;;;5010604;28;20197;-74
2023/08/13 10:57:59;;;;;;;6.55;2.45;;;33.80;1.00;;;;;;5011103;28;20266;-74
2023/08/13 11:00:27;;;;;;;3.53;2.00;;;33.30;1.00;;;;;;5010705;28;20265;-74
2023/08/13 11:02:58;;;;;;;5.75;2.47;;;33.10;1.00;;;;;;5011002;28;20571;-74
2023/08/13 11:05:25;;;;;;;5.93;2.20;;;33.10;1.00;;;;;;5010770;28;20265;-74
2023/08/13 11:07:51;;;;;;;5.22;2.67;;;32.80;1.00;;;;;;5010891;28;20239;-74
2023/08/13 11:10:20;;;;;;;4.85;2.45;;;32.00;1.00;;;;;;5010468;28;20190;-73
2023/08/13 11:12:47;;;;;;;3.92;2.35;;;31.20;1.00;;;;;;5009312;28;20209;-73
2023/08/13 11:15:14;;;;;;;4.90;2.72;;;31.20;1.00;;;;;;5010374;28;20209;-75
2023/08/13 11:17:46;;;;;;;3.50;2.20;;;31.50;1.00;;;;;;5010512;28;20184;-74
2023/08/13 11:20:13;;;;;;;5.30;2.72;;;31.80;1.00;;;;;;5010577;28;20274;-74
2023/08/13 11:22:40;;;;;;;6.18;2.20;;;31.80;1.00;;;;;;5009179;28;20196;-74
2023/08/13 11:25:07;;;;;;;4.30;2.28;;;31.50;1.00;;;;;;5009623;28;20263;-74
2023/08/13 11:27:34;;;;;;;7.22;2.10;;;31.50;1.00;;;;;;5009054;28;20189;-74
2023/08/13 11:30:01;;;;;;;5.50;2.40;;;32.00;1.00;;;;;;5009024;28;20652;-74
2023/08/13 11:32:26;;;;;;;4.07;2.20;;;32.30;1.00;;;;;;5010074;28;20639;-74
2023/08/13 11:34:52;;;;;;;5.95;2.50;;;32.10;1.00;;;;;;5010581;28;20293;-74
2023/08/13 11:37:17;;;;;;;4.78;2.70;;;31.70;1.00;;;;;;5009351;28;20178;-74
2023/08/13 11:39:43;;;;;;;7.57;2.88;;;31.60;1.00;;;;;;5007213;28;20227;-73
2023/08/13 11:42:09;;;;;;;4.75;2.47;;;31.40;1.00;;;;;;5007209;28;20720;-74
2023/08/13 11:44:35;;;;;;;4.45;2.33;;;31.20;1.00;;;;;;5007847;28;20217;-74
2023/08/13 11:47:04;;;;;;;4.35;2.53;;;31.40;1.00;;;;;;5008721;28;20239;-74
2023/08/13 11:49:30;;;;;;;5.35;2.65;;;32.70;1.00;;;;;;5009927;28;20184;-75
2023/08/13 11:51:57;;;;;;;5.35;2.60;;;34.70;1.00;;;;;;5008975;28;20277;-74
2023/08/13 11:54:23;;;;;;;5.88;2.70;;;36.10;1.00;;;;;;5009165;28;20213;-74
2023/08/13 11:56:53;;;;;;;4.50;2.70;;;37.30;1.00;;;;;;5007733;28;20706;-74
2023/08/13 11:59:29;;;;;;;5.30;2.35;;;37.80;1.00;;;;;;5009029;28;20181;-75
2023/08/13 12:01:55;;;;;;;7.35;2.25;;;39.10;1.00;;;;;;5013589;28;20232;-75
2023/08/13 12:04:22;;;;;;;5.07;2.00;;;40.10;1.00;;;;;;5008025;28;21045;-75
2023/08/13 12:06:51;;;;;;;4.30;2.30;;;40.40;1.00;;;;;;5007992;28;20216;-74
2023/08/13 12:09:16;;;;;;;3.35;2.00;;;40.70;1.00;;;;;;5007498;28;20281;-75
2023/08/13 12:11:42;;;;;;;3.92;1.83;;;39.70;1.00;;;;;;5009170;28;20288;-75
2023/08/13 12:14:08;;;;;;;3.97;2.20;;;38.90;1.00;;;;;;5008203;28;20300;-75
2023/08/13 12:16:33;;;;;;;4.45;1.98;;;40.20;1.00;;;;;;4999701;28;20203;-75
2023/08/13 12:19:04;;;;;;;2.88;1.90;;;41.50;1.00;;;;;;5005455;28;20205;-74
2023/08/13 12:21:30;;;;;;;4.32;1.73;;;42.90;1.00;;;;;;5004467;28;20227;-75
2023/08/13 12:23:56;;;;;;;3.00;1.70;;;43.10;1.00;;;;;;5006064;28;20225;-75
2023/08/13 12:26:21;;;;;;;4.18;2.00;;;42.70;1.00;;;;;;5004239;28;20652;-75
2023/08/13 12:28:50;;;;;;;6.88;1.80;;;42.00;1.00;;;;;;5000355;28;20188;-74
2023/08/13 12:31:19;;;;;;;3.33;1.92;;;41.90;1.00;;;;;;5003173;28;20261;-77
2023/08/13 12:33:45;;;;;;;3.35;1.83;;;40.50;1.00;;;;;;5006937;28;20205;-75
2023/08/13 12:36:11;;;;;;;4.00;2.03;;;40.00;1.00;;;;;;5006644;28;20186;-75
2023/08/13 12:38:39;;;;;;;3.53;1.60;;;40.60;1.00;;;;;;5009829;28;20183;-75
2023/08/13 12:41:06;;;;;;;3.20;1.70;;;40.30;1.00;;;;;;5009799;28;20256;-75
2023/08/13 12:43:32;;;;;;;4.90;1.95;;;39.80;1.00;;;;;;5007512;28;20208;-75
2023/08/13 12:45:57;;;;;;;4.28;1.80;;;38.80;1.00;;;;;;5011164;28;20174;-75
2023/08/13 12:48:23;;;;;;;3.13;1.63;;;38.00;1.00;;;;;;5009127;28;20205;-72